Pagrindinis puslapis
METAR-TAF:

METAR-TAF

Oro uostai :

Nairobis, Kenija

platuma: 01-19S, ilguma: 036-55E, Aukštis: 1624 m

METAR: trūkstamas

Laikas: 16:56 (13:56 UTC)

Prognozė

Ataskaita buvo paskelbta 2 valandos ir 56 minutes, ne 11:00 UTC
Prognozė galioja nuo 25 metu 12 UTC su 26 metu 18 UTC
Vėjas 10 kt iš Rytų/Šiaurės Rytų
Matomumas 10 km arba daugiau
Išsisklaidę debesys ne aukštis 2600 ft
Tapsmas
nuo 25 metu 21 UTC su 26 metu 00 UTC
Vėjas 5 kt iš Šiaurės/Šiaurės Vakarų
Matomumas 10 km arba daugiau
nėra debesų žemiau 1500 m ir nėra kamuolinių lietaus debesų
Tapsmas
nuo 26 metu 08 UTC su 26 metu 11 UTC
Vėjas 10 kt iš Rytų/Šiaurės Rytų
Matomumas 10 km arba daugiau
Mažai debesys ne aukštis 2600 ft

TAF: HKJK 251100Z 2512/2618 06010KT 9999 SCT026 BECMG 2521/2600 34005KT CAVOK BECMG 2608/2611 06010KT 9999 FEW026

Orai ataskaitas ir orų prognozės (METAR, TAF).

turimą stotys yra geltonos ir raudonos taškus žemėlapyje.

Perkelti pele per norėdami pamatyti stoties vardą.

Tada spustelėkite, norėdami matyti oro stebėjimo ir prognozės.

Norėdami pakeisti žemėlapį: spustelėkite ant žalios mygtukų su juodo kryžiaus žemyn,; žalią mygtuką su brūkšneliu, jei norite nutolinti; arba žalių rodyklių gretimoms žemėlapius.


METAR-TAF: